sensor_id;sensor_type;location;lat;lon;timestamp;temperature;humidity
69084;SHT31;56185;48.526;9.044;2023-05-01T00:01:27;11.75;70.54
69084;SHT31;56185;48.526;9.044;2023-05-01T00:03:52;11.77;71.29
69084;SHT31;56185;48.526;9.044;2023-05-01T00:06:17;11.74;71.71
69084;SHT31;56185;48.526;9.044;2023-05-01T00:08:42;11.69;71.38
69084;SHT31;56185;48.526;9.044;2023-05-01T00:11:07;11.59;71.88
69084;SHT31;56185;48.526;9.044;2023-05-01T00:13:33;11.62;71.50
69084;SHT31;56185;48.526;9.044;2023-05-01T00:15:58;11.61;72.20
69084;SHT31;56185;48.526;9.044;2023-05-01T00:18:23;11.57;72.49
69084;SHT31;56185;48.526;9.044;2023-05-01T00:20:48;11.61;72.90
69084;SHT31;56185;48.526;9.044;2023-05-01T00:23:14;11.67;72.85
69084;SHT31;56185;48.526;9.044;2023-05-01T00:25:39;11.72;72.24
69084;SHT31;56185;48.526;9.044;2023-05-01T00:28:04;11.77;72.25
69084;SHT31;56185;48.526;9.044;2023-05-01T00:30:31;11.89;71.75
69084;SHT31;56185;48.526;9.044;2023-05-01T00:32:57;11.90;71.72
69084;SHT31;56185;48.526;9.044;2023-05-01T00:35:22;11.95;71.67
69084;SHT31;56185;48.526;9.044;2023-05-01T00:37:47;11.86;72.23
69084;SHT31;56185;48.526;9.044;2023-05-01T00:40:12;11.89;71.07
69084;SHT31;56185;48.526;9.044;2023-05-01T00:42:38;11.83;71.51
69084;SHT31;56185;48.526;9.044;2023-05-01T00:45:06;11.86;71.90
69084;SHT31;56185;48.526;9.044;2023-05-01T00:47:34;11.81;72.30
69084;SHT31;56185;48.526;9.044;2023-05-01T00:50:00;11.82;72.09
69084;SHT31;56185;48.526;9.044;2023-05-01T00:52:25;11.93;71.42
69084;SHT31;56185;48.526;9.044;2023-05-01T00:54:50;11.98;71.02
69084;SHT31;56185;48.526;9.044;2023-05-01T00:57:20;11.88;71.46
69084;SHT31;56185;48.526;9.044;2023-05-01T00:59:45;12.02;70.92
69084;SHT31;56185;48.526;9.044;2023-05-01T01:02:11;11.83;72.43
69084;SHT31;56185;48.526;9.044;2023-05-01T01:04:37;11.89;72.29
69084;SHT31;56185;48.526;9.044;2023-05-01T01:07:16;12.16;71.51
69084;SHT31;56185;48.526;9.044;2023-05-01T01:10:07;12.27;70.87
69084;SHT31;56185;48.526;9.044;2023-05-01T01:13:03;12.00;71.54
69084;SHT31;56185;48.526;9.044;2023-05-01T01:15:52;11.93;71.38
69084;SHT31;56185;48.526;9.044;2023-05-01T01:26:50;11.50;73.27
69084;SHT31;56185;48.526;9.044;2023-05-01T01:35:21;11.67;72.42
69084;SHT31;56185;48.526;9.044;2023-05-01T01:38:03;11.72;72.10
69084;SHT31;56185;48.526;9.044;2023-05-01T01:40:37;11.50;73.70
69084;SHT31;56185;48.526;9.044;2023-05-01T01:43:06;11.57;73.56
69084;SHT31;56185;48.526;9.044;2023-05-01T01:45:39;11.64;73.71
69084;SHT31;56185;48.526;9.044;2023-05-01T01:48:10;11.57;74.48
69084;SHT31;56185;48.526;9.044;2023-05-01T01:50:38;11.67;73.41
69084;SHT31;56185;48.526;9.044;2023-05-01T01:53:05;11.62;73.82
69084;SHT31;56185;48.526;9.044;2023-05-01T01:55:33;11.67;73.38
69084;SHT31;56185;48.526;9.044;2023-05-01T01:58:02;11.74;73.03
69084;SHT31;56185;48.526;9.044;2023-05-01T02:00:27;11.69;73.84
69084;SHT31;56185;48.526;9.044;2023-05-01T02:02:54;11.74;72.94
69084;SHT31;56185;48.526;9.044;2023-05-01T02:05:20;11.92;72.19
69084;SHT31;56185;48.526;9.044;2023-05-01T02:07:47;11.82;72.80
69084;SHT31;56185;48.526;9.044;2023-05-01T02:10:14;11.78;73.00
69084;SHT31;56185;48.526;9.044;2023-05-01T02:12:41;11.75;73.19
69084;SHT31;56185;48.526;9.044;2023-05-01T02:15:09;11.61;74.16
69084;SHT31;56185;48.526;9.044;2023-05-01T02:17:35;11.58;74.23
69084;SHT31;56185;48.526;9.044;2023-05-01T02:20:01;11.62;74.16
69084;SHT31;56185;48.526;9.044;2023-05-01T02:22:27;11.69;73.66
69084;SHT31;56185;48.526;9.044;2023-05-01T02:24:54;11.68;73.67
69084;SHT31;56185;48.526;9.044;2023-05-01T02:27:33;11.67;73.77
69084;SHT31;56185;48.526;9.044;2023-05-01T02:30:00;11.71;73.77
69084;SHT31;56185;48.526;9.044;2023-05-01T02:32:25;11.77;73.69
69084;SHT31;56185;48.526;9.044;2023-05-01T02:34:50;11.74;73.55
69084;SHT31;56185;48.526;9.044;2023-05-01T02:37:16;11.77;73.48
69084;SHT31;56185;48.526;9.044;2023-05-01T02:39:41;11.78;73.28
69084;SHT31;56185;48.526;9.044;2023-05-01T02:42:07;11.71;73.35
69084;SHT31;56185;48.526;9.044;2023-05-01T02:44:59;11.64;73.33
69084;SHT31;56185;48.526;9.044;2023-05-01T02:47:26;11.61;73.93
69084;SHT31;56185;48.526;9.044;2023-05-01T02:49:53;11.61;73.45
69084;SHT31;56185;48.526;9.044;2023-05-01T02:52:19;11.59;73.33
69084;SHT31;56185;48.526;9.044;2023-05-01T02:54:45;11.52;73.83
69084;SHT31;56185;48.526;9.044;2023-05-01T02:57:11;11.55;73.74
69084;SHT31;56185;48.526;9.044;2023-05-01T02:59:36;11.51;73.89
69084;SHT31;56185;48.526;9.044;2023-05-01T03:02:01;11.54;74.08
69084;SHT31;56185;48.526;9.044;2023-05-01T03:04:27;11.35;75.17
69084;SHT31;56185;48.526;9.044;2023-05-01T03:06:52;11.40;75.20
69084;SHT31;56185;48.526;9.044;2023-05-01T03:09:17;11.47;74.60
69084;SHT31;56185;48.526;9.044;2023-05-01T03:11:43;11.32;75.84
69084;SHT31;56185;48.526;9.044;2023-05-01T03:14:08;11.34;75.35
69084;SHT31;56185;48.526;9.044;2023-05-01T03:16:34;11.37;75.51
69084;SHT31;56185;48.526;9.044;2023-05-01T03:18:59;11.34;75.41
69084;SHT31;56185;48.526;9.044;2023-05-01T03:21:24;11.35;75.49
69084;SHT31;56185;48.526;9.044;2023-05-01T03:23:49;11.32;75.49
69084;SHT31;56185;48.526;9.044;2023-05-01T03:26:14;11.31;75.62
69084;SHT31;56185;48.526;9.044;2023-05-01T03:28:40;11.40;75.62
69084;SHT31;56185;48.526;9.044;2023-05-01T03:31:05;11.38;75.41
69084;SHT31;56185;48.526;9.044;2023-05-01T03:33:30;11.34;75.81
69084;SHT31;56185;48.526;9.044;2023-05-01T03:36:02;11.45;75.68
69084;SHT31;56185;48.526;9.044;2023-05-01T03:38:29;11.55;75.39
69084;SHT31;56185;48.526;9.044;2023-05-01T03:40:54;11.79;74.74
69084;SHT31;56185;48.526;9.044;2023-05-01T03:43:19;11.64;75.31
69084;SHT31;56185;48.526;9.044;2023-05-01T03:45:44;11.57;75.63
69084;SHT31;56185;48.526;9.044;2023-05-01T03:48:10;11.65;75.76
69084;SHT31;56185;48.526;9.044;2023-05-01T03:50:35;11.57;75.57
69084;SHT31;56185;48.526;9.044;2023-05-01T03:53:00;11.54;76.44
69084;SHT31;56185;48.526;9.044;2023-05-01T03:55:26;11.59;75.70
69084;SHT31;56185;48.526;9.044;2023-05-01T03:57:51;11.57;75.26
69084;SHT31;56185;48.526;9.044;2023-05-01T04:00:16;11.52;76.22
69084;SHT31;56185;48.526;9.044;2023-05-01T04:02:41;11.42;76.28
69084;SHT31;56185;48.526;9.044;2023-05-01T04:05:07;11.50;76.76
69084;SHT31;56185;48.526;9.044;2023-05-01T04:07:32;11.48;76.60
69084;SHT31;56185;48.526;9.044;2023-05-01T04:09:57;11.54;77.62
69084;SHT31;56185;48.526;9.044;2023-05-01T04:12:22;11.45;77.70
69084;SHT31;56185;48.526;9.044;2023-05-01T04:14:48;11.44;77.80
69084;SHT31;56185;48.526;9.044;2023-05-01T04:17:13;11.41;77.98
69084;SHT31;56185;48.526;9.044;2023-05-01T04:19:38;11.32;78.51
69084;SHT31;56185;48.526;9.044;2023-05-01T04:22:03;11.37;78.81
69084;SHT31;56185;48.526;9.044;2023-05-01T04:24:29;11.31;79.30
69084;SHT31;56185;48.526;9.044;2023-05-01T04:26:54;11.26;79.21
69084;SHT31;56185;48.526;9.044;2023-05-01T04:29:19;11.14;79.90
69084;SHT31;56185;48.526;9.044;2023-05-01T04:31:44;11.16;80.55
69084;SHT31;56185;48.526;9.044;2023-05-01T04:34:10;11.13;80.82
69084;SHT31;56185;48.526;9.044;2023-05-01T04:36:35;11.01;81.39
69084;SHT31;56185;48.526;9.044;2023-05-01T04:39:00;11.16;80.61
69084;SHT31;56185;48.526;9.044;2023-05-01T04:41:25;11.23;81.77
69084;SHT31;56185;48.526;9.044;2023-05-01T04:43:51;11.19;80.75
69084;SHT31;56185;48.526;9.044;2023-05-01T04:46:16;11.27;80.69
69084;SHT31;56185;48.526;9.044;2023-05-01T04:48:41;11.28;80.43
69084;SHT31;56185;48.526;9.044;2023-05-01T04:51:06;11.26;81.10
69084;SHT31;56185;48.526;9.044;2023-05-01T04:53:32;11.30;82.98
69084;SHT31;56185;48.526;9.044;2023-05-01T04:55:57;11.27;81.78
69084;SHT31;56185;48.526;9.044;2023-05-01T04:58:22;11.32;81.81
69084;SHT31;56185;48.526;9.044;2023-05-01T05:00:47;11.38;80.80
69084;SHT31;56185;48.526;9.044;2023-05-01T05:03:13;11.37;81.77
69084;SHT31;56185;48.526;9.044;2023-05-01T05:05:38;11.42;81.48
69084;SHT31;56185;48.526;9.044;2023-05-01T05:08:03;11.34;82.02
69084;SHT31;56185;48.526;9.044;2023-05-01T05:10:29;11.32;81.96
69084;SHT31;56185;48.526;9.044;2023-05-01T05:12:54;11.35;82.30
69084;SHT31;56185;48.526;9.044;2023-05-01T05:15:19;11.41;82.39
69084;SHT31;56185;48.526;9.044;2023-05-01T05:17:45;11.40;82.25
69084;SHT31;56185;48.526;9.044;2023-05-01T05:20:10;11.47;82.21
69084;SHT31;56185;48.526;9.044;2023-05-01T05:22:36;11.38;81.82
69084;SHT31;56185;48.526;9.044;2023-05-01T05:25:01;11.40;82.12
69084;SHT31;56185;48.526;9.044;2023-05-01T05:27:27;11.42;82.26
69084;SHT31;56185;48.526;9.044;2023-05-01T05:29:52;11.48;82.34
69084;SHT31;56185;48.526;9.044;2023-05-01T05:32:18;11.54;82.13
69084;SHT31;56185;48.526;9.044;2023-05-01T05:34:43;11.41;82.42
69084;SHT31;56185;48.526;9.044;2023-05-01T05:37:09;11.44;82.10
69084;SHT31;56185;48.526;9.044;2023-05-01T05:39:34;11.48;81.05
69084;SHT31;56185;48.526;9.044;2023-05-01T05:41:59;11.47;81.86
69084;SHT31;56185;48.526;9.044;2023-05-01T05:44:25;11.31;81.86
69084;SHT31;56185;48.526;9.044;2023-05-01T05:46:50;11.28;82.02
69084;SHT31;56185;48.526;9.044;2023-05-01T05:49:15;11.34;81.34
69084;SHT31;56185;48.526;9.044;2023-05-01T05:51:41;11.34;81.14
69084;SHT31;56185;48.526;9.044;2023-05-01T05:54:06;11.35;81.99
69084;SHT31;56185;48.526;9.044;2023-05-01T05:56:31;11.54;80.68
69084;SHT31;56185;48.526;9.044;2023-05-01T05:58:56;11.44;80.53
69084;SHT31;56185;48.526;9.044;2023-05-01T06:01:22;11.41;80.90
69084;SHT31;56185;48.526;9.044;2023-05-01T06:03:47;11.41;82.29
69084;SHT31;56185;48.526;9.044;2023-05-01T06:06:12;11.45;82.02
69084;SHT31;56185;48.526;9.044;2023-05-01T06:08:37;11.44;82.80
69084;SHT31;56185;48.526;9.044;2023-05-01T06:11:03;11.55;82.38
69084;SHT31;56185;48.526;9.044;2023-05-01T06:13:28;11.55;82.58
69084;SHT31;56185;48.526;9.044;2023-05-01T06:15:53;11.62;82.61
69084;SHT31;56185;48.526;9.044;2023-05-01T06:18:19;11.58;82.09
69084;SHT31;56185;48.526;9.044;2023-05-01T06:20:44;11.71;82.16
69084;SHT31;56185;48.526;9.044;2023-05-01T06:23:09;11.67;82.46
69084;SHT31;56185;48.526;9.044;2023-05-01T06:25:35;11.72;81.47
69084;SHT31;56185;48.526;9.044;2023-05-01T06:28:00;11.65;82.40
69084;SHT31;56185;48.526;9.044;2023-05-01T06:30:25;11.64;82.57
69084;SHT31;56185;48.526;9.044;2023-05-01T06:32:50;11.64;81.78
69084;SHT31;56185;48.526;9.044;2023-05-01T06:35:16;11.61;81.97
69084;SHT31;56185;48.526;9.044;2023-05-01T06:37:41;11.61;82.09
69084;SHT31;56185;48.526;9.044;2023-05-01T06:40:07;11.58;82.25
69084;SHT31;56185;48.526;9.044;2023-05-01T06:42:33;11.69;82.54
69084;SHT31;56185;48.526;9.044;2023-05-01T06:44:58;11.72;82.85
69084;SHT31;56185;48.526;9.044;2023-05-01T06:47:23;11.72;82.58
69084;SHT31;56185;48.526;9.044;2023-05-01T06:49:48;11.85;83.03
69084;SHT31;56185;48.526;9.044;2023-05-01T06:52:14;11.82;82.06
69084;SHT31;56185;48.526;9.044;2023-05-01T06:54:39;11.71;81.78
69084;SHT31;56185;48.526;9.044;2023-05-01T06:57:04;11.72;82.95
69084;SHT31;56185;48.526;9.044;2023-05-01T06:59:30;11.71;83.02
69084;SHT31;56185;48.526;9.044;2023-05-01T07:01:55;11.65;82.97
69084;SHT31;56185;48.526;9.044;2023-05-01T07:04:20;11.77;83.01
69084;SHT31;56185;48.526;9.044;2023-05-01T07:06:45;11.78;82.74
69084;SHT31;56185;48.526;9.044;2023-05-01T07:09:11;11.77;82.29
69084;SHT31;56185;48.526;9.044;2023-05-01T07:11:36;11.75;83.49
69084;SHT31;56185;48.526;9.044;2023-05-01T07:14:01;11.79;81.89
69084;SHT31;56185;48.526;9.044;2023-05-01T07:16:27;11.88;82.25
69084;SHT31;56185;48.526;9.044;2023-05-01T07:18:53;11.92;82.06
69084;SHT31;56185;48.526;9.044;2023-05-01T07:21:18;12.00;81.85
69084;SHT31;56185;48.526;9.044;2023-05-01T07:23:43;11.90;81.76
69084;SHT31;56185;48.526;9.044;2023-05-01T07:26:09;11.89;82.60
69084;SHT31;56185;48.526;9.044;2023-05-01T07:28:34;11.98;81.35
69084;SHT31;56185;48.526;9.044;2023-05-01T07:30:59;11.99;81.77
69084;SHT31;56185;48.526;9.044;2023-05-01T07:33:25;11.98;81.16
69084;SHT31;56185;48.526;9.044;2023-05-01T07:35:50;12.00;82.54
69084;SHT31;56185;48.526;9.044;2023-05-01T07:38:16;11.95;82.17
69084;SHT31;56185;48.526;9.044;2023-05-01T07:40:41;11.92;81.15
69084;SHT31;56185;48.526;9.044;2023-05-01T07:43:07;11.92;82.14
69084;SHT31;56185;48.526;9.044;2023-05-01T07:45:32;11.93;81.47
69084;SHT31;56185;48.526;9.044;2023-05-01T07:47:57;12.06;82.20
69084;SHT31;56185;48.526;9.044;2023-05-01T07:50:22;12.16;82.46
69084;SHT31;56185;48.526;9.044;2023-05-01T07:52:48;12.18;81.29
69084;SHT31;56185;48.526;9.044;2023-05-01T07:55:13;12.19;81.00
69084;SHT31;56185;48.526;9.044;2023-05-01T07:57:38;12.19;80.30
69084;SHT31;56185;48.526;9.044;2023-05-01T08:00:07;12.22;81.49
69084;SHT31;56185;48.526;9.044;2023-05-01T08:02:32;12.19;81.75
69084;SHT31;56185;48.526;9.044;2023-05-01T08:04:57;12.33;81.15
69084;SHT31;56185;48.526;9.044;2023-05-01T08:07:23;12.34;81.50
69084;SHT31;56185;48.526;9.044;2023-05-01T08:09:48;12.30;81.17
69084;SHT31;56185;48.526;9.044;2023-05-01T08:12:13;12.41;81.55
69084;SHT31;56185;48.526;9.044;2023-05-01T08:14:38;12.46;80.87
69084;SHT31;56185;48.526;9.044;2023-05-01T08:17:04;12.47;80.95
69084;SHT31;56185;48.526;9.044;2023-05-01T08:19:29;12.51;81.48
69084;SHT31;56185;48.526;9.044;2023-05-01T08:21:54;12.51;80.59
69084;SHT31;56185;48.526;9.044;2023-05-01T08:24:19;12.64;81.68
69084;SHT31;56185;48.526;9.044;2023-05-01T08:26:45;12.68;79.53
69084;SHT31;56185;48.526;9.044;2023-05-01T08:29:10;12.67;80.43
69084;SHT31;56185;48.526;9.044;2023-05-01T08:31:35;12.78;80.56
69084;SHT31;56185;48.526;9.044;2023-05-01T08:34:01;12.91;81.71
69084;SHT31;56185;48.526;9.044;2023-05-01T08:36:26;12.98;78.08
69084;SHT31;56185;48.526;9.044;2023-05-01T08:38:51;13.02;79.39
69084;SHT31;56185;48.526;9.044;2023-05-01T08:41:20;13.02;78.10
69084;SHT31;56185;48.526;9.044;2023-05-01T08:43:47;13.02;78.92
69084;SHT31;56185;48.526;9.044;2023-05-01T08:46:14;13.07;77.09
69084;SHT31;56185;48.526;9.044;2023-05-01T08:48:44;13.08;77.60
69084;SHT31;56185;48.526;9.044;2023-05-01T08:51:10;13.08;79.06
69084;SHT31;56185;48.526;9.044;2023-05-01T08:53:37;13.18;80.52
69084;SHT31;56185;48.526;9.044;2023-05-01T08:56:05;13.15;78.91
69084;SHT31;56185;48.526;9.044;2023-05-01T08:58:32;13.22;79.54
69084;SHT31;56185;48.526;9.044;2023-05-01T09:01:00;13.32;79.95
69084;SHT31;56185;48.526;9.044;2023-05-01T09:03:26;13.43;79.60
69084;SHT31;56185;48.526;9.044;2023-05-01T09:05:52;13.52;78.07
69084;SHT31;56185;48.526;9.044;2023-05-01T09:08:18;13.65;78.57
69084;SHT31;56185;48.526;9.044;2023-05-01T09:10:45;13.80;78.64
69084;SHT31;56185;48.526;9.044;2023-05-01T09:13:12;13.91;76.24
69084;SHT31;56185;48.526;9.044;2023-05-01T09:15:37;13.87;74.06
69084;SHT31;56185;48.526;9.044;2023-05-01T09:18:03;13.84;74.21
69084;SHT31;56185;48.526;9.044;2023-05-01T09:20:28;13.84;76.08
69084;SHT31;56185;48.526;9.044;2023-05-01T09:22:54;13.86;77.36
69084;SHT31;56185;48.526;9.044;2023-05-01T09:25:20;13.78;76.55
69084;SHT31;56185;48.526;9.044;2023-05-01T09:27:45;14.04;76.22
69084;SHT31;56185;48.526;9.044;2023-05-01T09:30:32;14.22;74.82
69084;SHT31;56185;48.526;9.044;2023-05-01T09:33:11;14.32;74.96
69084;SHT31;56185;48.526;9.044;2023-05-01T09:35:51;14.44;74.22
69084;SHT31;56185;48.526;9.044;2023-05-01T09:38:18;14.48;74.33
69084;SHT31;56185;48.526;9.044;2023-05-01T09:40:44;14.58;74.28
69084;SHT31;56185;48.526;9.044;2023-05-01T09:43:09;14.59;73.33
69084;SHT31;56185;48.526;9.044;2023-05-01T09:45:34;14.65;72.10
69084;SHT31;56185;48.526;9.044;2023-05-01T09:48:09;14.65;73.26
69084;SHT31;56185;48.526;9.044;2023-05-01T09:50:34;14.72;73.38
69084;SHT31;56185;48.526;9.044;2023-05-01T09:53:01;14.73;71.82
69084;SHT31;56185;48.526;9.044;2023-05-01T09:55:26;14.83;72.36
69084;SHT31;56185;48.526;9.044;2023-05-01T09:57:51;14.77;72.66
69084;SHT31;56185;48.526;9.044;2023-05-01T10:00:17;14.90;71.53
69084;SHT31;56185;48.526;9.044;2023-05-01T10:02:44;14.96;70.84
69084;SHT31;56185;48.526;9.044;2023-05-01T10:05:10;15.04;73.01
69084;SHT31;56185;48.526;9.044;2023-05-01T10:07:36;15.14;72.12
69084;SHT31;56185;48.526;9.044;2023-05-01T10:10:20;15.33;71.50
69084;SHT31;56185;48.526;9.044;2023-05-01T10:12:46;15.44;71.49
69084;SHT31;56185;48.526;9.044;2023-05-01T10:15:12;15.40;69.16
69084;SHT31;56185;48.526;9.044;2023-05-01T10:17:39;15.47;70.60
69084;SHT31;56185;48.526;9.044;2023-05-01T10:20:06;15.48;68.90
69084;SHT31;56185;48.526;9.044;2023-05-01T10:22:31;15.50;68.89
69084;SHT31;56185;48.526;9.044;2023-05-01T10:24:57;15.50;70.66
69084;SHT31;56185;48.526;9.044;2023-05-01T10:27:23;15.48;70.01
69084;SHT31;56185;48.526;9.044;2023-05-01T10:29:51;15.50;69.04
69084;SHT31;56185;48.526;9.044;2023-05-01T10:32:16;15.47;69.89
69084;SHT31;56185;48.526;9.044;2023-05-01T10:34:46;15.40;69.35
69084;SHT31;56185;48.526;9.044;2023-05-01T10:37:23;15.33;69.56
69084;SHT31;56185;48.526;9.044;2023-05-01T10:39:50;15.30;70.63
69084;SHT31;56185;48.526;9.044;2023-05-01T10:42:15;15.33;71.36
69084;SHT31;56185;48.526;9.044;2023-05-01T10:44:41;15.19;71.49
69084;SHT31;56185;48.526;9.044;2023-05-01T10:50:09;15.14;70.28
69084;SHT31;56185;48.526;9.044;2023-05-01T10:55:35;15.16;72.32
69084;SHT31;56185;48.526;9.044;2023-05-01T10:58:00;14.99;73.95
69084;SHT31;56185;48.526;9.044;2023-05-01T11:00:25;14.99;74.55
69084;SHT31;56185;48.526;9.044;2023-05-01T11:02:51;15.08;75.01
69084;SHT31;56185;48.526;9.044;2023-05-01T11:05:16;15.17;75.33
69084;SHT31;56185;48.526;9.044;2023-05-01T11:07:41;15.14;74.27
69084;SHT31;56185;48.526;9.044;2023-05-01T11:10:25;15.19;72.40
69084;SHT31;56185;48.526;9.044;2023-05-01T11:12:51;15.27;73.09
69084;SHT31;56185;48.526;9.044;2023-05-01T11:15:31;15.33;71.88
69084;SHT31;56185;48.526;9.044;2023-05-01T11:17:57;15.33;72.08
69084;SHT31;56185;48.526;9.044;2023-05-01T11:22:50;15.69;71.79
69084;SHT31;56185;48.526;9.044;2023-05-01T11:25:20;15.74;71.74
69084;SHT31;56185;48.526;9.044;2023-05-01T11:30:14;15.92;69.76
69084;SHT31;56185;48.526;9.044;2023-05-01T11:32:42;16.03;69.62
69084;SHT31;56185;48.526;9.044;2023-05-01T11:37:43;16.23;67.44
69084;SHT31;56185;48.526;9.044;2023-05-01T11:40:32;16.36;66.69
69084;SHT31;56185;48.526;9.044;2023-05-01T11:45:26;16.41;66.14
69084;SHT31;56185;48.526;9.044;2023-05-01T11:47:52;16.47;65.76
69084;SHT31;56185;48.526;9.044;2023-05-01T11:50:17;16.49;66.06
69084;SHT31;56185;48.526;9.044;2023-05-01T11:52:52;16.44;65.59
69084;SHT31;56185;48.526;9.044;2023-05-01T11:55:19;16.50;64.15
69084;SHT31;56185;48.526;9.044;2023-05-01T12:00:10;16.60;64.93
69084;SHT31;56185;48.526;9.044;2023-05-01T12:02:36;16.60;63.81
69084;SHT31;56185;48.526;9.044;2023-05-01T12:05:17;16.67;65.54
69084;SHT31;56185;48.526;9.044;2023-05-01T12:07:42;16.84;63.72
69084;SHT31;56185;48.526;9.044;2023-05-01T12:10:08;16.81;62.54
69084;SHT31;56185;48.526;9.044;2023-05-01T12:12:33;16.92;63.49
69084;SHT31;56185;48.526;9.044;2023-05-01T12:14:59;17.07;63.16
69084;SHT31;56185;48.526;9.044;2023-05-01T12:17:24;17.21;60.91
69084;SHT31;56185;48.526;9.044;2023-05-01T12:19:50;17.23;62.07
69084;SHT31;56185;48.526;9.044;2023-05-01T12:22:15;17.29;62.65
69084;SHT31;56185;48.526;9.044;2023-05-01T12:24:49;17.35;60.24
69084;SHT31;56185;48.526;9.044;2023-05-01T12:27:14;17.33;58.59
69084;SHT31;56185;48.526;9.044;2023-05-01T12:29:40;17.42;58.64
69084;SHT31;56185;48.526;9.044;2023-05-01T12:32:05;17.42;59.47
69084;SHT31;56185;48.526;9.044;2023-05-01T12:34:32;17.38;59.18
69084;SHT31;56185;48.526;9.044;2023-05-01T12:36:58;17.57;59.00
69084;SHT31;56185;48.526;9.044;2023-05-01T12:39:23;17.73;58.89
69084;SHT31;56185;48.526;9.044;2023-05-01T12:41:50;17.90;58.75
69084;SHT31;56185;48.526;9.044;2023-05-01T12:44:26;18.12;58.67
69084;SHT31;56185;48.526;9.044;2023-05-01T12:46:59;18.05;55.00
69084;SHT31;56185;48.526;9.044;2023-05-01T12:49:26;18.08;54.75
69084;SHT31;56185;48.526;9.044;2023-05-01T12:51:53;18.34;55.10
69084;SHT31;56185;48.526;9.044;2023-05-01T12:54:29;18.41;52.18
69084;SHT31;56185;48.526;9.044;2023-05-01T12:57:08;18.35;54.45
69084;SHT31;56185;48.526;9.044;2023-05-01T12:59:35;18.21;55.16
69084;SHT31;56185;48.526;9.044;2023-05-01T13:02:05;18.22;54.10
69084;SHT31;56185;48.526;9.044;2023-05-01T13:04:31;18.20;53.17
69084;SHT31;56185;48.526;9.044;2023-05-01T13:06:57;18.32;54.04
69084;SHT31;56185;48.526;9.044;2023-05-01T13:09:25;18.37;54.97
69084;SHT31;56185;48.526;9.044;2023-05-01T13:12:03;18.38;54.49
69084;SHT31;56185;48.526;9.044;2023-05-01T13:14:29;18.34;52.27
69084;SHT31;56185;48.526;9.044;2023-05-01T13:16:59;18.17;53.85
69084;SHT31;56185;48.526;9.044;2023-05-01T13:19:27;18.12;55.63
69084;SHT31;56185;48.526;9.044;2023-05-01T13:21:54;18.18;55.33
69084;SHT31;56185;48.526;9.044;2023-05-01T13:24:20;18.11;53.79
69084;SHT31;56185;48.526;9.044;2023-05-01T13:26:45;18.05;55.29
69084;SHT31;56185;48.526;9.044;2023-05-01T13:29:14;17.91;55.40
69084;SHT31;56185;48.526;9.044;2023-05-01T13:31:44;17.71;55.90
69084;SHT31;56185;48.526;9.044;2023-05-01T13:34:09;17.43;61.34
69084;SHT31;56185;48.526;9.044;2023-05-01T13:36:34;17.04;64.95
69084;SHT31;56185;48.526;9.044;2023-05-01T13:39:00;16.81;68.23
69084;SHT31;56185;48.526;9.044;2023-05-01T13:41:26;16.60;68.25
69084;SHT31;56185;48.526;9.044;2023-05-01T13:43:54;15.96;72.67
69084;SHT31;56185;48.526;9.044;2023-05-01T13:46:22;15.54;74.49
69084;SHT31;56185;48.526;9.044;2023-05-01T13:48:47;15.19;77.58
69084;SHT31;56185;48.526;9.044;2023-05-01T13:51:14;14.66;82.56
69084;SHT31;56185;48.526;9.044;2023-05-01T13:53:41;14.39;83.19
69084;SHT31;56185;48.526;9.044;2023-05-01T13:56:08;14.24;84.41
69084;SHT31;56185;48.526;9.044;2023-05-01T13:58:34;14.54;80.83
69084;SHT31;56185;48.526;9.044;2023-05-01T14:00:59;14.32;83.59
69084;SHT31;56185;48.526;9.044;2023-05-01T14:03:24;14.20;83.52
69084;SHT31;56185;48.526;9.044;2023-05-01T14:05:50;14.26;81.82
69084;SHT31;56185;48.526;9.044;2023-05-01T14:08:19;14.05;84.41
69084;SHT31;56185;48.526;9.044;2023-05-01T14:10:44;14.26;85.37
69084;SHT31;56185;48.526;9.044;2023-05-01T14:13:10;14.45;84.70
69084;SHT31;56185;48.526;9.044;2023-05-01T14:15:35;14.55;83.35
69084;SHT31;56185;48.526;9.044;2023-05-01T14:18:04;14.75;81.17
69084;SHT31;56185;48.526;9.044;2023-05-01T14:20:30;14.77;77.90
69084;SHT31;56185;48.526;9.044;2023-05-01T14:22:55;14.72;80.83
69084;SHT31;56185;48.526;9.044;2023-05-01T14:25:30;14.75;82.29
69084;SHT31;56185;48.526;9.044;2023-05-01T14:27:58;14.49;79.04
69084;SHT31;56185;48.526;9.044;2023-05-01T14:32:48;14.20;84.46
69084;SHT31;56185;48.526;9.044;2023-05-01T14:35:14;14.42;82.50
69084;SHT31;56185;48.526;9.044;2023-05-01T14:37:39;14.49;80.77
69084;SHT31;56185;48.526;9.044;2023-05-01T14:40:10;14.55;81.87
69084;SHT31;56185;48.526;9.044;2023-05-01T14:42:36;14.54;82.90
69084;SHT31;56185;48.526;9.044;2023-05-01T14:45:05;14.49;83.73
69084;SHT31;56185;48.526;9.044;2023-05-01T14:47:34;14.51;81.13
69084;SHT31;56185;48.526;9.044;2023-05-01T14:49:59;14.14;82.17
69084;SHT31;56185;48.526;9.044;2023-05-01T14:52:24;14.05;85.08
69084;SHT31;56185;48.526;9.044;2023-05-01T14:54:50;14.08;84.82
69084;SHT31;56185;48.526;9.044;2023-05-01T14:57:15;14.07;85.98
69084;SHT31;56185;48.526;9.044;2023-05-01T14:59:40;14.24;84.67
69084;SHT31;56185;48.526;9.044;2023-05-01T15:02:05;14.36;83.98
69084;SHT31;56185;48.526;9.044;2023-05-01T15:04:31;14.22;84.60
69084;SHT31;56185;48.526;9.044;2023-05-01T15:06:56;14.11;85.48
69084;SHT31;56185;48.526;9.044;2023-05-01T15:09:21;14.03;85.01
69084;SHT31;56185;48.526;9.044;2023-05-01T15:11:46;14.11;84.37
69084;SHT31;56185;48.526;9.044;2023-05-01T15:14:11;14.21;84.46
69084;SHT31;56185;48.526;9.044;2023-05-01T15:16:37;14.14;84.59
69084;SHT31;56185;48.526;9.044;2023-05-01T15:19:02;14.14;84.13
69084;SHT31;56185;48.526;9.044;2023-05-01T15:21:27;14.13;84.85
69084;SHT31;56185;48.526;9.044;2023-05-01T15:23:53;14.25;83.20
69084;SHT31;56185;48.526;9.044;2023-05-01T15:26:18;14.34;83.12
69084;SHT31;56185;48.526;9.044;2023-05-01T15:28:43;14.32;83.65
69084;SHT31;56185;48.526;9.044;2023-05-01T15:31:08;14.35;82.31
69084;SHT31;56185;48.526;9.044;2023-05-01T15:33:34;14.46;81.43
69084;SHT31;56185;48.526;9.044;2023-05-01T15:35:59;14.39;82.38
69084;SHT31;56185;48.526;9.044;2023-05-01T15:38:24;14.38;80.74
69084;SHT31;56185;48.526;9.044;2023-05-01T15:40:49;14.21;81.27
69084;SHT31;56185;48.526;9.044;2023-05-01T15:43:15;14.29;79.99
69084;SHT31;56185;48.526;9.044;2023-05-01T15:45:40;14.28;81.58
69084;SHT31;56185;48.526;9.044;2023-05-01T15:48:05;14.24;83.38
69084;SHT31;56185;48.526;9.044;2023-05-01T15:50:30;14.38;81.23
69084;SHT31;56185;48.526;9.044;2023-05-01T15:52:56;14.39;81.43
69084;SHT31;56185;48.526;9.044;2023-05-01T15:55:21;14.48;82.13
69084;SHT31;56185;48.526;9.044;2023-05-01T15:57:46;14.54;80.95
69084;SHT31;56185;48.526;9.044;2023-05-01T16:00:12;14.58;82.54
69084;SHT31;56185;48.526;9.044;2023-05-01T16:02:37;14.48;82.27